createdAt,value
2022-12-07T00:00:29.049Z,1019.5
2022-12-07T00:15:25.224Z,1019.4
2022-12-07T00:30:21.434Z,1019.3
2022-12-07T00:45:17.032Z,1019.2
2022-12-07T01:00:12.975Z,1019.1
2022-12-07T01:15:09.173Z,1019
2022-12-07T01:30:05.314Z,1019
2022-12-07T01:45:01.402Z,1019
2022-12-07T01:59:57.124Z,1019
2022-12-07T02:14:52.886Z,1018.8
2022-12-07T02:29:49.257Z,1018.7
2022-12-07T02:44:45.538Z,1018.7
2022-12-07T02:59:41.661Z,1018.6
2022-12-07T03:14:37.770Z,1018.6
2022-12-07T03:29:34.286Z,1018.5
2022-12-07T03:44:30.551Z,1018.5
2022-12-07T03:59:26.910Z,1018.5
2022-12-07T04:14:23.491Z,1018.5
2022-12-07T04:29:19.389Z,1018.5
2022-12-07T04:44:15.149Z,1018.5
2022-12-07T04:59:11.147Z,1018.4
2022-12-07T05:14:07.075Z,1018.5
2022-12-07T05:29:03.388Z,1018.5
2022-12-07T05:43:59.572Z,1018.5
2022-12-07T05:58:55.735Z,1018.4
2022-12-07T06:13:51.566Z,1018.4
2022-12-07T06:28:47.889Z,1018.5
2022-12-07T06:43:43.923Z,1018.6
2022-12-07T06:58:40.277Z,1018.8
2022-12-07T07:02:38.821Z,1018.8
2022-12-07T07:17:34.553Z,1018.8
2022-12-07T07:32:30.429Z,1018.8
2022-12-07T07:47:26.929Z,1018.9
2022-12-07T08:02:22.980Z,1018.9
2022-12-07T08:17:19.136Z,1018.9
2022-12-07T08:32:15.907Z,1019
2022-12-07T08:47:12.032Z,1019
2022-12-07T09:02:08.496Z,1018.9
2022-12-07T09:17:04.734Z,1018.9
2022-12-07T09:32:02.040Z,1018.9
2022-12-07T09:46:57.535Z,1018.9
2022-12-07T10:01:53.621Z,1018.7
2022-12-07T10:16:50.099Z,1018.7
2022-12-07T10:31:46.648Z,1018.5
2022-12-07T10:46:42.557Z,1018.3
2022-12-07T11:01:38.787Z,1018.2
2022-12-07T11:16:35.340Z,1018.1
2022-12-07T11:31:31.506Z,1017.9
2022-12-07T11:46:27.992Z,1017.7
2022-12-07T12:01:23.640Z,1017.6
2022-12-07T12:16:19.447Z,1017.5
2022-12-07T12:31:15.953Z,1017.4
2022-12-07T12:46:11.800Z,1017.3
2022-12-07T13:01:07.862Z,1017.3
2022-12-07T13:16:03.945Z,1017.2
2022-12-07T13:30:59.944Z,1017.1
2022-12-07T13:45:55.749Z,1017.1
2022-12-07T14:00:52.102Z,1017.1
2022-12-07T14:15:47.796Z,1017
2022-12-07T14:30:44.301Z,1016.9
2022-12-07T14:45:40.971Z,1016.9
2022-12-07T15:00:37.159Z,1016.9
2022-12-07T15:02:50.571Z,1016.9
2022-12-07T15:17:46.383Z,1016.6
2022-12-07T15:32:42.299Z,1016.6
2022-12-07T15:47:55.167Z,1016.6
2022-12-07T16:02:39.568Z,1016.4
2022-12-07T16:17:30.370Z,1016.4
2022-12-07T16:32:26.673Z,1016.4
2022-12-07T16:47:22.528Z,1016.3
2022-12-07T17:02:18.541Z,1016.2
2022-12-07T17:17:14.517Z,1016.1
2022-12-07T17:32:10.436Z,1016
2022-12-07T17:47:06.560Z,1016.1
2022-12-07T18:02:03.267Z,1016
2022-12-07T18:16:59.131Z,1015.9
2022-12-07T18:31:55.543Z,1015.7
2022-12-07T18:46:51.749Z,1015.5
2022-12-07T19:01:47.965Z,1015.6
2022-12-07T19:16:44.434Z,1015.5
2022-12-07T19:31:40.009Z,1015.3
2022-12-07T19:46:36.408Z,1015.2
2022-12-07T20:01:32.376Z,1015.2
2022-12-07T20:16:29.077Z,1015.2
2022-12-07T20:31:24.618Z,1015.1
2022-12-07T20:46:20.464Z,1015.2
2022-12-07T21:01:16.983Z,1015
2022-12-07T21:16:13.135Z,1014.9
2022-12-07T21:31:13.737Z,1014.8
2022-12-07T21:46:05.668Z,1014.7
2022-12-07T22:01:01.745Z,1014.6
2022-12-07T22:15:57.719Z,1014.5
2022-12-07T22:30:53.982Z,1014.5
2022-12-07T22:45:50.432Z,1014.3
2022-12-07T23:00:46.613Z,1014.1
2022-12-07T23:15:42.702Z,1014.1
2022-12-07T23:30:38.799Z,1013.9
2022-12-07T23:45:35.242Z,1013.8
